الصفحة الرئيسية
METAR-TAF:

METAR-TAF

مطار :

Taloyoak, نونافوت, كندا

دائرة عرض: 69-33N, خط طول: 093-35W, ارتفاع: 28 متر

مراقبة الطقس الحالي

تاريخ ووقت الإصدار 21ساعات و 20 دقيقة قبل الساعة 01:00UTC
ريح 4 عقدة من الجنوب/الجنوب الشرقي, الاتجاه يتراوح بين الشرق و الجنوب الغربي
درجة الحرارة 8°درجة مئوية
الرطوبة 81%
ضغط 1022 hPa
الرؤية: 24.1 كم
غيوم قليلة على ارتفاع 6500 قدم
غيوم قليلة على ارتفاع 18000 قدم
غيوم مفككة على ارتفاع 24000 قدم

METAR: CYYH 210100Z 15004KT 100V220 15SM FEW065 FEW180 BKN240 08/05 A3017 RMK SC1AC2CI4 SC TR LAST STFDD OBS/NXT OBS 211430Z SLP220

زمن: 16:20 (22:20 UTC)

توقعات

تاريخ ووقت الإصدار 22ساعات و 37 دقيقة قبل الساعة 23:43UTC
التوقعات صالحة من21 الساعة 00 UTC إلى 21 الساعة 12 UTC
ريح 12 عقدة من الغرب
الرؤية: 10 كم
غيوم قليلة على ارتفاع 6000 قدم
غيوم متفرقة على ارتفاع 24000 قدم
من 21 الساعة 0300 UTC
ريح 10 عقدة من الغرب/الجنوب الغربي
الرؤية: 10 كم
غيوم مفككة على ارتفاع 5000 قدم

TAF: CYYH 202343Z 2100/2112 27012KT P6SM FEW060 SCT240 FM210300 24010KT P6SM BKN050 RMK NXT FCST BY 210600Z

أرصاد الطقس والتوقعات من أكثر من 4000 مطار (تقارير الطقس للمطار METAR والتنبؤ بالطقس بالمطارTAF).

المحطات المتاحة هي النقط الصفراء والحمراء على الخريطة.

حرك المؤشر فوق النقطة لمعرفة اسم المحطة.

ثم انقر لمعرفة أرصاد وتوقعات الطقس.

لتغيير الخارطة: اضغط على الأزرار الخضراء مع رمز الصليب الأسود للتكبير. على الزر الأخضر مع شرطة للتصغير، أو على الأسهم الخضراء للخرائط المجاورة.


METAR-TAF: